createdAt,value
2019-05-14T00:02:22.792Z,2.50
2019-05-14T00:04:52.843Z,7.03
2019-05-14T00:07:22.894Z,5.50
2019-05-14T00:09:53.009Z,6.17
2019-05-14T00:12:23.980Z,2.93
2019-05-14T00:14:53.972Z,7.17
2019-05-14T00:17:24.297Z,6.60
2019-05-14T00:20:06.353Z,5.23
2019-05-14T00:22:26.044Z,7.53
2019-05-14T00:24:56.212Z,4.73
2019-05-14T00:27:26.166Z,3.37
2019-05-14T00:29:56.413Z,6.30
2019-05-14T00:32:26.463Z,2.73
2019-05-14T00:34:56.539Z,4.60
2019-05-14T00:37:26.884Z,4.80
2019-05-14T00:39:57.393Z,4.83
2019-05-14T00:42:27.438Z,4.63
2019-05-14T00:44:58.045Z,6.23
2019-05-14T00:47:31.000Z,5.67
2019-05-14T00:50:02.246Z,4.70
2019-05-14T00:52:32.600Z,8.70
2019-05-14T00:55:02.585Z,6.73
2019-05-14T00:57:32.479Z,7.63
2019-05-14T01:00:02.400Z,6.43
2019-05-14T01:02:32.641Z,8.43
2019-05-14T01:05:02.696Z,9.73
2019-05-14T01:07:32.648Z,6.60
2019-05-14T01:10:02.596Z,7.27
2019-05-14T01:12:32.844Z,6.03
2019-05-14T01:15:10.184Z,6.83
2019-05-14T01:17:34.887Z,6.40
2019-05-14T01:20:05.382Z,5.63
2019-05-14T01:22:35.356Z,4.77
2019-05-14T01:25:05.627Z,7.80
2019-05-14T01:27:35.588Z,7.70
2019-05-14T01:30:06.238Z,8.43
2019-05-14T01:32:36.223Z,5.03
2019-05-14T01:35:06.419Z,8.47
2019-05-14T01:37:36.498Z,9.70
2019-05-14T01:40:07.128Z,10.27
2019-05-14T01:42:37.126Z,5.07
2019-05-14T01:45:21.109Z,4.27
2019-05-14T01:47:41.256Z,5.27
2019-05-14T01:50:11.457Z,6.13
2019-05-14T01:52:41.822Z,5.67
2019-05-14T01:55:12.585Z,7.70
2019-05-14T01:58:02.366Z,5.93
2019-05-14T02:00:32.703Z,7.33
2019-05-14T02:03:02.650Z,6.33
2019-05-14T02:05:32.922Z,6.43
2019-05-14T02:08:03.193Z,5.27
2019-05-14T02:10:33.510Z,9.63
2019-05-14T02:13:03.462Z,6.90
2019-05-14T02:15:39.031Z,6.57
2019-05-14T02:18:05.788Z,6.60
2019-05-14T02:20:35.760Z,8.30
2019-05-14T02:23:06.067Z,7.47
2019-05-14T02:25:36.028Z,7.87
2019-05-14T02:28:06.249Z,8.13
2019-05-14T02:30:48.267Z,10.60
2019-05-14T02:33:09.302Z,7.13
2019-05-14T02:35:39.908Z,6.63
2019-05-14T02:38:10.431Z,10.80
2019-05-14T02:40:40.694Z,10.53
2019-05-14T02:43:10.896Z,8.43
2019-05-14T02:45:58.708Z,6.60
2019-05-14T02:48:12.649Z,8.50
2019-05-14T02:50:42.615Z,6.77
2019-05-14T02:53:12.580Z,10.37
2019-05-14T02:55:42.642Z,8.30
2019-05-14T02:58:12.704Z,7.93
2019-05-14T03:00:43.801Z,11.00
2019-05-14T03:03:13.809Z,8.47
2019-05-14T03:05:44.066Z,8.40
2019-05-14T03:08:14.065Z,10.20
2019-05-14T03:10:44.103Z,7.93
2019-05-14T03:13:14.371Z,9.23
2019-05-14T03:15:44.729Z,11.90
2019-05-14T03:18:14.689Z,7.63
2019-05-14T03:20:44.730Z,8.40
2019-05-14T03:23:18.604Z,10.43
2019-05-14T03:25:49.128Z,12.67
2019-05-14T03:28:19.813Z,9.53
2019-05-14T03:30:52.387Z,7.50
2019-05-14T03:33:22.513Z,13.30
2019-05-14T03:36:01.128Z,9.03
2019-05-14T03:38:24.696Z,8.57
2019-05-14T03:40:54.690Z,11.13
2019-05-14T03:43:24.730Z,10.57
2019-05-14T03:45:54.893Z,10.40
2019-05-14T03:48:25.578Z,9.47
2019-05-14T03:50:55.603Z,9.00
2019-05-14T03:53:29.299Z,12.43
2019-05-14T03:55:59.706Z,9.20
2019-05-14T03:58:29.988Z,8.63
2019-05-14T04:01:01.881Z,7.97
2019-05-14T04:03:32.207Z,9.10
2019-05-14T04:06:03.074Z,8.33
2019-05-14T04:08:34.904Z,9.03
2019-05-14T04:11:04.911Z,9.50
2019-05-14T04:13:40.514Z,9.90
2019-05-14T04:16:13.443Z,10.03
2019-05-14T04:18:50.055Z,8.90
2019-05-14T04:21:20.622Z,7.27
2019-05-14T04:23:51.439Z,9.63
2019-05-14T04:26:22.378Z,8.93
2019-05-14T04:28:52.712Z,8.93
2019-05-14T04:31:22.690Z,10.80
2019-05-14T04:33:54.241Z,9.13
2019-05-14T04:36:24.246Z,8.20
2019-05-14T04:38:55.440Z,13.23
2019-05-14T04:41:26.098Z,9.47
2019-05-14T04:43:59.201Z,10.40
2019-05-14T04:46:30.348Z,10.60
2019-05-14T04:48:59.473Z,7.27
2019-05-14T04:51:30.488Z,11.67
2019-05-14T04:54:00.625Z,11.40
2019-05-14T04:56:30.625Z,10.67
2019-05-14T04:59:00.566Z,13.40
2019-05-14T05:01:30.524Z,10.10
2019-05-14T05:04:00.620Z,11.50
2019-05-14T05:06:30.582Z,10.30
2019-05-14T05:09:00.485Z,10.73
2019-05-14T05:11:30.538Z,10.47
2019-05-14T05:14:00.440Z,13.50
2019-05-14T05:16:30.388Z,10.37
2019-05-14T05:19:00.362Z,12.60
2019-05-14T05:21:30.620Z,14.03
2019-05-14T05:24:00.562Z,11.53
2019-05-14T05:26:30.528Z,10.57
2019-05-14T05:29:06.553Z,11.40
2019-05-14T05:31:32.446Z,10.97
2019-05-14T05:34:02.433Z,15.27
2019-05-14T05:36:32.314Z,10.67
2019-05-14T05:39:02.359Z,12.23
2019-05-14T05:41:32.392Z,11.47
2019-05-14T05:44:02.369Z,11.93
2019-05-14T05:46:32.375Z,13.33
2019-05-14T05:49:02.691Z,11.13
2019-05-14T05:51:32.654Z,11.87
2019-05-14T05:54:02.641Z,12.37
2019-05-14T05:56:32.612Z,13.80
2019-05-14T05:59:02.507Z,11.23
2019-05-14T06:01:44.128Z,18.43
2019-05-14T06:04:04.433Z,13.93
2019-05-14T06:06:34.381Z,12.30
2019-05-14T06:09:05.282Z,13.37
2019-05-14T06:11:37.958Z,11.87
2019-05-14T06:14:08.330Z,14.90
2019-05-14T06:16:38.571Z,13.47
2019-05-14T06:19:09.018Z,15.40
2019-05-14T06:21:39.767Z,11.53
2019-05-14T06:24:10.100Z,10.70
2019-05-14T06:26:40.037Z,11.77
2019-05-14T06:29:10.083Z,12.10
2019-05-14T06:31:39.971Z,12.67
2019-05-14T06:34:10.017Z,15.40
2019-05-14T06:36:40.313Z,11.03
2019-05-14T06:39:10.257Z,12.73
2019-05-14T06:41:42.796Z,9.53
2019-05-14T06:44:11.819Z,10.50
2019-05-14T06:46:41.770Z,12.43
2019-05-14T06:49:12.344Z,11.47
2019-05-14T06:51:42.636Z,11.37
2019-05-14T06:54:12.556Z,12.77
2019-05-14T06:56:42.595Z,12.90
2019-05-14T06:59:12.563Z,9.93
2019-05-14T07:01:42.518Z,12.20
2019-05-14T07:04:12.498Z,10.53
2019-05-14T07:06:42.738Z,10.97
2019-05-14T07:09:12.719Z,13.43
2019-05-14T07:11:42.625Z,13.23
2019-05-14T07:14:12.687Z,11.83
2019-05-14T07:16:42.776Z,10.47
2019-05-14T07:19:15.732Z,11.77
2019-05-14T07:21:44.699Z,9.13
2019-05-14T07:24:14.697Z,10.50
2019-05-14T07:26:44.517Z,10.97
2019-05-14T07:29:14.487Z,11.07
2019-05-14T07:31:44.750Z,11.67
2019-05-14T07:34:14.728Z,9.30
2019-05-14T07:36:45.072Z,12.07
2019-05-14T07:39:15.477Z,10.17
2019-05-14T07:41:45.366Z,8.53
2019-05-14T07:44:15.348Z,9.43
2019-05-14T07:46:45.218Z,9.13
2019-05-14T07:49:15.069Z,12.43
2019-05-14T07:51:45.054Z,9.37
2019-05-14T07:54:15.031Z,7.63
2019-05-14T07:56:44.991Z,10.90
2019-05-14T07:59:17.947Z,10.87
2019-05-14T08:01:49.088Z,7.30
2019-05-14T08:04:20.055Z,6.50
2019-05-14T08:06:50.567Z,8.90
2019-05-14T08:09:20.615Z,11.90
2019-05-14T08:11:50.673Z,8.53
2019-05-14T08:14:20.687Z,6.30
2019-05-14T08:16:50.651Z,6.47
2019-05-14T08:19:26.509Z,7.57
2019-05-14T08:21:52.290Z,8.73
2019-05-14T08:24:26.994Z,8.27
2019-05-14T08:26:53.954Z,5.53
2019-05-14T08:29:23.849Z,5.37
2019-05-14T08:31:53.909Z,3.27
2019-05-14T08:34:23.952Z,5.27
2019-05-14T08:36:53.930Z,3.93
2019-05-14T08:39:24.704Z,5.37
2019-05-14T08:41:59.547Z,6.72
2019-05-14T08:44:26.306Z,4.93
2019-05-14T08:46:58.836Z,4.92
2019-05-14T08:49:39.151Z,5.60
2019-05-14T08:52:00.111Z,5.47
2019-05-14T08:54:30.253Z,4.92
2019-05-14T08:57:00.284Z,5.85
2019-05-14T08:59:30.366Z,4.55
2019-05-14T09:02:06.401Z,4.80
2019-05-14T09:04:32.229Z,3.70
2019-05-14T09:07:02.226Z,4.20
2019-05-14T09:09:32.198Z,3.92
2019-05-14T09:12:02.240Z,2.72
2019-05-14T09:14:32.187Z,4.83
2019-05-14T09:17:02.382Z,5.55
2019-05-14T09:19:32.701Z,5.12
2019-05-14T09:22:02.861Z,6.35
2019-05-14T09:24:33.896Z,7.28
2019-05-14T09:27:05.584Z,8.33
2019-05-14T09:29:35.801Z,5.28
2019-05-14T09:32:05.780Z,3.55
2019-05-14T09:34:35.965Z,6.05
2019-05-14T09:37:08.397Z,5.90
2019-05-14T09:39:38.546Z,4.20
2019-05-14T09:42:08.957Z,5.55
2019-05-14T09:44:38.940Z,3.17
2019-05-14T09:47:09.000Z,5.50
2019-05-14T09:49:39.211Z,5.03
2019-05-14T09:52:09.906Z,4.50
2019-05-14T09:54:43.865Z,3.20
2019-05-14T09:57:11.454Z,6.75
2019-05-14T09:59:41.464Z,3.95
2019-05-14T10:02:11.722Z,3.45
2019-05-14T10:04:41.756Z,4.78
2019-05-14T10:07:15.218Z,3.87
2019-05-14T10:09:43.505Z,4.03
2019-05-14T10:12:13.598Z,4.60
2019-05-14T10:14:44.174Z,3.45
2019-05-14T10:17:14.164Z,3.70
2019-05-14T10:19:44.060Z,3.83
2019-05-14T10:22:14.042Z,4.20
2019-05-14T10:24:44.311Z,4.60
2019-05-14T10:27:14.218Z,4.42
2019-05-14T10:29:44.487Z,2.83
2019-05-14T10:32:14.553Z,3.47
2019-05-14T10:34:44.570Z,6.45
2019-05-14T10:37:14.531Z,4.90
2019-05-14T10:39:44.853Z,4.95
2019-05-14T10:42:14.830Z,3.55
2019-05-14T10:44:44.805Z,2.90
2019-05-14T10:47:14.780Z,4.12
2019-05-14T10:49:44.692Z,3.70
2019-05-14T10:52:14.597Z,4.78
2019-05-14T10:54:55.469Z,4.50
2019-05-14T10:57:18.349Z,3.12
2019-05-14T10:59:47.993Z,2.85
2019-05-14T11:02:19.007Z,3.42
2019-05-14T11:04:49.987Z,4.55
2019-05-14T11:07:19.929Z,4.00
2019-05-14T11:09:49.915Z,3.35
2019-05-14T11:12:19.882Z,3.05
2019-05-14T11:14:49.881Z,4.62
2019-05-14T11:17:20.146Z,2.87
2019-05-14T11:19:50.142Z,2.83
2019-05-14T11:22:20.194Z,4.20
2019-05-14T11:24:50.193Z,2.77
2019-05-14T11:27:20.321Z,3.83
2019-05-14T11:29:50.374Z,3.67
2019-05-14T11:32:20.352Z,2.65
2019-05-14T11:34:50.311Z,2.77
2019-05-14T11:37:20.297Z,2.75
2019-05-14T11:39:51.326Z,2.52
2019-05-14T11:42:21.315Z,2.17
2019-05-14T11:44:51.265Z,2.45
2019-05-14T11:47:21.224Z,2.72
2019-05-14T11:49:51.254Z,3.30
2019-05-14T11:52:21.280Z,3.55
2019-05-14T11:54:51.524Z,2.10
2019-05-14T11:57:22.400Z,3.12
2019-05-14T11:59:52.420Z,2.17
2019-05-14T12:02:22.390Z,2.75
2019-05-14T12:04:52.400Z,2.60
2019-05-14T12:07:22.403Z,5.85
2019-05-14T12:09:52.505Z,2.25
2019-05-14T12:12:22.576Z,2.12
2019-05-14T12:14:52.770Z,2.33
2019-05-14T12:17:23.923Z,2.80
2019-05-14T12:19:54.192Z,3.08
2019-05-14T12:22:24.234Z,2.20
2019-05-14T12:24:54.146Z,3.08
2019-05-14T12:27:24.054Z,3.50
2019-05-14T12:29:54.107Z,2.37
2019-05-14T12:32:24.083Z,4.12
2019-05-14T12:34:54.019Z,2.35
2019-05-14T12:37:23.976Z,1.55
2019-05-14T12:39:53.960Z,3.60
2019-05-14T12:42:23.798Z,2.25
2019-05-14T12:44:53.706Z,3.37
2019-05-14T12:47:23.592Z,2.25
2019-05-14T12:49:53.955Z,1.75
2019-05-14T12:52:26.063Z,3.37
2019-05-14T12:54:56.213Z,3.15
2019-05-14T12:57:29.824Z,3.45
2019-05-14T12:59:58.630Z,2.37
2019-05-14T13:02:29.497Z,2.62
2019-05-14T13:05:00.197Z,2.15
2019-05-14T13:07:30.310Z,1.65
2019-05-14T13:10:00.272Z,1.60
2019-05-14T13:12:30.338Z,1.85
2019-05-14T13:15:00.375Z,1.70
2019-05-14T13:17:30.362Z,1.40
2019-05-14T13:20:00.418Z,1.82
2019-05-14T13:22:41.569Z,1.75
2019-05-14T13:25:02.064Z,3.10
2019-05-14T13:27:32.023Z,2.27
2019-05-14T13:30:03.275Z,2.67
2019-05-14T13:32:33.597Z,2.58
2019-05-14T13:35:03.800Z,3.27
2019-05-14T13:37:33.778Z,2.10
2019-05-14T13:40:04.143Z,2.35
2019-05-14T13:42:34.368Z,1.87
2019-05-14T13:45:04.665Z,3.58
2019-05-14T13:47:34.705Z,6.33
2019-05-14T13:50:05.124Z,2.10
2019-05-14T13:52:35.522Z,1.47
2019-05-14T13:55:05.684Z,2.10
2019-05-14T13:57:35.688Z,1.80
2019-05-14T14:00:11.734Z,2.33
2019-05-14T14:02:39.527Z,2.33
2019-05-14T14:05:09.897Z,2.00
2019-05-14T14:07:44.518Z,1.40
2019-05-14T14:10:12.607Z,2.35
2019-05-14T14:12:42.649Z,3.98
2019-05-14T14:15:13.083Z,2.15
2019-05-14T14:17:43.036Z,1.32
2019-05-14T14:20:13.091Z,5.08
2019-05-14T14:22:43.164Z,1.87
2019-05-14T14:25:17.522Z,5.70
2019-05-14T14:27:48.490Z,2.72
2019-05-14T14:30:19.462Z,4.70
2019-05-14T14:32:49.707Z,2.20
2019-05-14T14:35:23.627Z,1.90
2019-05-14T14:37:52.029Z,2.27
2019-05-14T14:40:23.295Z,1.95
2019-05-14T14:42:53.358Z,2.30
2019-05-14T14:45:23.359Z,2.22
2019-05-14T14:47:53.390Z,1.40
2019-05-14T14:50:23.365Z,1.62
2019-05-14T14:52:53.339Z,2.05
2019-05-14T14:55:23.320Z,1.42
2019-05-14T14:57:55.465Z,2.05
2019-05-14T15:00:25.808Z,1.90
2019-05-14T15:02:59.601Z,1.42
2019-05-14T15:05:29.629Z,1.98
2019-05-14T15:08:00.349Z,4.80
2019-05-14T15:10:30.511Z,1.12
2019-05-14T15:13:00.573Z,2.25
2019-05-14T15:15:32.154Z,1.70
2019-05-14T15:18:02.502Z,1.47
2019-05-14T15:20:32.765Z,1.32
2019-05-14T15:23:03.153Z,1.82
2019-05-14T15:25:33.467Z,1.72
2019-05-14T15:28:03.544Z,2.00
2019-05-14T15:30:33.453Z,3.05
2019-05-14T15:33:03.821Z,4.55
2019-05-14T15:35:33.795Z,2.10
2019-05-14T15:38:03.824Z,2.17
2019-05-14T15:40:33.830Z,3.58
2019-05-14T15:43:03.827Z,1.35
2019-05-14T15:45:33.807Z,1.98
2019-05-14T15:48:04.645Z,1.10
2019-05-14T15:50:34.698Z,2.25
2019-05-14T15:53:04.706Z,2.77
2019-05-14T15:55:34.764Z,1.42
2019-05-14T15:58:04.869Z,1.27
2019-05-14T16:00:38.333Z,1.55
2019-05-14T16:03:08.753Z,1.55
2019-05-14T16:05:39.494Z,1.95
2019-05-14T16:08:10.808Z,1.52
2019-05-14T16:10:40.839Z,1.15
2019-05-14T16:13:10.758Z,1.90
2019-05-14T16:15:40.796Z,2.35
2019-05-14T16:18:18.477Z,16.00
2019-05-14T16:20:42.471Z,1.92
2019-05-14T16:23:12.666Z,1.35
2019-05-14T16:25:43.564Z,1.30
2019-05-14T16:28:13.832Z,1.95
2019-05-14T16:30:43.860Z,1.50
2019-05-14T16:33:14.204Z,1.60
2019-05-14T16:35:44.454Z,1.50
2019-05-14T16:38:14.414Z,2.02
2019-05-14T16:40:44.396Z,3.27
2019-05-14T16:43:15.154Z,1.57
2019-05-14T16:45:45.112Z,1.20
2019-05-14T16:48:15.028Z,1.85
2019-05-14T16:50:46.159Z,1.70
2019-05-14T16:53:16.079Z,1.60
2019-05-14T16:55:48.772Z,1.92
2019-05-14T16:58:20.046Z,2.37
2019-05-14T17:00:50.000Z,3.98
2019-05-14T17:03:20.278Z,1.60
2019-05-14T17:05:50.489Z,1.75
2019-05-14T17:08:20.477Z,2.87
2019-05-14T17:10:50.473Z,1.80
2019-05-14T17:13:20.624Z,1.32
2019-05-14T17:15:50.621Z,1.57
2019-05-14T17:18:20.647Z,1.82
2019-05-14T17:20:50.618Z,2.25
2019-05-14T17:23:20.558Z,1.37
2019-05-14T17:25:51.621Z,1.42
2019-05-14T17:28:21.684Z,1.80
2019-05-14T17:30:52.532Z,1.47
2019-05-14T17:33:22.526Z,1.27
2019-05-14T17:35:52.495Z,2.40
2019-05-14T17:38:22.474Z,1.65
2019-05-14T17:40:53.767Z,1.52
2019-05-14T17:43:23.755Z,1.40
2019-05-14T17:45:54.992Z,1.27
2019-05-14T17:48:24.954Z,2.53
2019-05-14T17:50:55.337Z,1.42
2019-05-14T17:53:25.881Z,2.62
2019-05-14T17:55:55.872Z,2.12
2019-05-14T17:58:28.582Z,1.60
2019-05-14T18:00:58.480Z,2.70
2019-05-14T18:03:29.140Z,1.35
2019-05-14T18:06:00.066Z,1.27
2019-05-14T18:08:30.221Z,2.03
2019-05-14T18:11:01.807Z,1.52
2019-05-14T18:13:31.904Z,1.60
2019-05-14T18:16:02.165Z,1.35
2019-05-14T18:18:32.154Z,1.70
2019-05-14T18:21:02.307Z,2.37
2019-05-14T18:23:32.402Z,3.05
2019-05-14T18:26:08.248Z,2.15
2019-05-14T18:28:34.885Z,2.12
2019-05-14T18:31:05.307Z,1.37
2019-05-14T18:33:35.247Z,2.40
2019-05-14T18:36:05.529Z,2.17
2019-05-14T18:38:35.518Z,1.90
2019-05-14T18:41:05.570Z,1.73
2019-05-14T18:43:35.629Z,2.33
2019-05-14T18:46:08.552Z,1.42
2019-05-14T18:48:38.565Z,4.20
2019-05-14T18:51:09.111Z,2.50
2019-05-14T18:53:39.562Z,3.57
2019-05-14T18:56:20.449Z,1.42
2019-05-14T18:58:41.740Z,1.50
2019-05-14T19:01:11.979Z,4.03
2019-05-14T19:03:42.079Z,2.80
2019-05-14T19:06:12.334Z,1.53
2019-05-14T19:08:42.358Z,1.77
2019-05-14T19:11:13.733Z,2.77
2019-05-14T19:13:43.937Z,1.87
2019-05-14T19:16:13.848Z,2.30
2019-05-14T19:18:44.109Z,1.93
2019-05-14T19:21:14.105Z,1.70
2019-05-14T19:23:45.312Z,1.90
2019-05-14T19:26:15.544Z,3.27
2019-05-14T19:28:45.416Z,2.30
2019-05-14T19:31:15.720Z,1.60
2019-05-14T19:33:46.042Z,1.97
2019-05-14T19:36:18.610Z,4.63
2019-05-14T19:38:48.528Z,2.07
2019-05-14T19:41:21.022Z,2.40
2019-05-14T19:43:50.477Z,2.37
2019-05-14T19:46:20.447Z,2.00
2019-05-14T19:48:50.702Z,2.47
2019-05-14T19:51:20.702Z,2.43
2019-05-14T19:53:52.425Z,2.07
2019-05-14T19:56:22.689Z,3.40
2019-05-14T19:58:52.742Z,1.50
2019-05-14T20:01:22.829Z,1.80
2019-05-14T20:03:52.807Z,2.80
2019-05-14T20:06:22.897Z,1.83
2019-05-14T20:08:53.176Z,1.77
2019-05-14T20:11:25.765Z,2.23
2019-05-14T20:13:55.405Z,1.72
2019-05-14T20:16:25.303Z,3.50
2019-05-14T20:18:55.320Z,3.10
2019-05-14T20:21:28.091Z,1.90
2019-05-14T20:23:59.019Z,2.20
2019-05-14T20:26:30.239Z,3.70
2019-05-14T20:29:01.169Z,2.90
2019-05-14T20:31:31.240Z,3.93
2019-05-14T20:34:01.263Z,3.27
2019-05-14T20:36:31.134Z,2.97
2019-05-14T20:39:01.118Z,2.77
2019-05-14T20:41:32.884Z,2.47
2019-05-14T20:44:03.218Z,2.00
2019-05-14T20:46:33.176Z,2.13
2019-05-14T20:49:03.429Z,2.17
2019-05-14T20:51:33.411Z,3.53
2019-05-14T20:54:03.504Z,1.70
2019-05-14T20:56:33.484Z,8.80
2019-05-14T20:59:03.456Z,2.00
2019-05-14T21:01:33.598Z,1.70
2019-05-14T21:04:03.612Z,3.30
2019-05-14T21:06:33.563Z,3.90
2019-05-14T21:09:04.150Z,2.90
2019-05-14T21:11:34.469Z,3.13
2019-05-14T21:14:04.495Z,3.97
2019-05-14T21:16:35.350Z,3.37
2019-05-14T21:19:05.324Z,2.33
2019-05-14T21:21:35.220Z,1.90
2019-05-14T21:24:05.253Z,1.90
2019-05-14T21:26:35.218Z,2.10
2019-05-14T21:29:05.114Z,1.67
2019-05-14T21:31:35.306Z,2.60
2019-05-14T21:34:05.565Z,3.67
2019-05-14T21:36:35.446Z,4.23
2019-05-14T21:39:08.071Z,2.83
2019-05-14T21:41:38.815Z,3.33
2019-05-14T21:44:09.205Z,2.77
2019-05-14T21:46:39.725Z,2.07
2019-05-14T21:49:10.999Z,2.20
2019-05-14T21:51:41.265Z,2.00
2019-05-14T21:54:11.184Z,2.03
2019-05-14T21:56:41.323Z,2.10
2019-05-14T21:59:11.483Z,2.73
2019-05-14T22:01:41.554Z,3.37
2019-05-14T22:04:11.865Z,1.93
2019-05-14T22:06:41.859Z,2.03
2019-05-14T22:09:12.873Z,3.50
2019-05-14T22:11:42.813Z,3.63
2019-05-14T22:14:13.135Z,2.17
2019-05-14T22:16:43.510Z,2.57
2019-05-14T22:19:13.456Z,3.37
2019-05-14T22:21:43.278Z,3.40
2019-05-14T22:24:13.125Z,3.10
2019-05-14T22:26:43.078Z,2.47
2019-05-14T22:29:14.267Z,4.77
2019-05-14T22:31:44.154Z,3.00
2019-05-14T22:34:14.220Z,2.57
2019-05-14T22:36:44.340Z,2.30
2019-05-14T22:39:14.317Z,2.83
2019-05-14T22:41:44.562Z,1.97
2019-05-14T22:44:14.422Z,2.33
2019-05-14T22:46:44.243Z,3.53
2019-05-14T22:49:14.101Z,3.13
2019-05-14T22:51:44.186Z,2.00
2019-05-14T22:54:14.269Z,1.97
2019-05-14T22:56:44.227Z,1.93
2019-05-14T22:59:14.421Z,2.07
2019-05-14T23:01:44.709Z,4.87
2019-05-14T23:04:14.502Z,2.83
2019-05-14T23:06:44.478Z,3.73
2019-05-14T23:09:16.363Z,6.03
2019-05-14T23:11:48.016Z,2.70
2019-05-14T23:14:18.562Z,2.37
2019-05-14T23:16:49.125Z,2.37
2019-05-14T23:19:19.263Z,1.60
2019-05-14T23:21:49.398Z,1.80
2019-05-14T23:24:19.377Z,1.97
2019-05-14T23:26:49.458Z,2.60
2019-05-14T23:29:20.275Z,2.00
2019-05-14T23:31:50.209Z,4.00
2019-05-14T23:34:20.374Z,3.22
2019-05-14T23:36:50.580Z,3.33
2019-05-14T23:39:20.885Z,1.97
2019-05-14T23:41:51.405Z,3.07
2019-05-14T23:44:21.701Z,2.27
2019-05-14T23:46:51.975Z,2.70
2019-05-14T23:49:22.226Z,2.00
2019-05-14T23:51:52.108Z,4.50
2019-05-14T23:54:22.134Z,2.00
2019-05-14T23:56:52.034Z,2.10
2019-05-14T23:59:22.005Z,2.97
